sensor_id;sensor_type;location;lat;lon;timestamp;P1;durP1;ratioP1;P2;durP2;ratioP2
20906;SDS011;10613;50.966;5.814;2023-08-24T06:43:45;9.00;;;9.00;;
20906;SDS011;10613;50.966;5.814;2023-08-24T06:48:00;11.50;;;11.00;;
20906;SDS011;10613;50.966;5.814;2023-08-24T06:52:07;9.75;;;9.75;;
20906;SDS011;10613;50.966;5.814;2023-08-24T06:56:15;12.25;;;9.75;;
20906;SDS011;10613;50.966;5.814;2023-08-24T07:00:22;10.00;;;10.00;;
20906;SDS011;10613;50.966;5.814;2023-08-24T07:04:29;11.00;;;11.00;;
20906;SDS011;10613;50.966;5.814;2023-08-24T07:08:36;9.00;;;8.50;;
20906;SDS011;10613;50.966;5.814;2023-08-24T07:12:43;8.25;;;8.25;;
20906;SDS011;10613;50.966;5.814;2023-08-24T07:16:51;10.00;;;9.75;;
20906;SDS011;10613;50.966;5.814;2023-08-24T07:20:58;10.00;;;9.00;;
20906;SDS011;10613;50.966;5.814;2023-08-24T07:25:05;8.00;;;7.75;;
20906;SDS011;10613;50.966;5.814;2023-08-24T07:29:12;8.50;;;8.00;;
20906;SDS011;10613;50.966;5.814;2023-08-24T07:33:19;8.00;;;8.00;;
20906;SDS011;10613;50.966;5.814;2023-08-24T07:37:28;7.25;;;7.00;;
20906;SDS011;10613;50.966;5.814;2023-08-24T07:41:35;8.25;;;7.25;;
20906;SDS011;10613;50.966;5.814;2023-08-24T07:45:42;6.50;;;6.50;;
20906;SDS011;10613;50.966;5.814;2023-08-24T07:49:49;7.00;;;7.00;;
20906;SDS011;10613;50.966;5.814;2023-08-24T07:53:56;7.00;;;5.50;;
20906;SDS011;10613;50.966;5.814;2023-08-24T07:58:03;7.25;;;5.25;;
20906;SDS011;10613;50.966;5.814;2023-08-24T08:02:10;7.25;;;7.00;;
20906;SDS011;10613;50.966;5.814;2023-08-24T08:06:17;7.25;;;6.50;;
20906;SDS011;10613;50.966;5.814;2023-08-24T08:10:24;4.00;;;4.00;;
20906;SDS011;10613;50.966;5.814;2023-08-24T08:14:31;5.00;;;5.00;;
20906;SDS011;10613;50.966;5.814;2023-08-24T08:18:38;6.50;;;4.75;;
20906;SDS011;10613;50.966;5.814;2023-08-24T08:22:45;4.00;;;4.00;;
20906;SDS011;10613;50.966;5.814;2023-08-24T08:26:52;5.00;;;4.75;;
20906;SDS011;10613;50.966;5.814;2023-08-24T08:30:59;4.00;;;4.00;;
20906;SDS011;10613;50.966;5.814;2023-08-24T08:35:06;4.00;;;4.00;;
20906;SDS011;10613;50.966;5.814;2023-08-24T08:39:13;3.00;;;3.00;;
20906;SDS011;10613;50.966;5.814;2023-08-24T08:43:23;3.00;;;3.00;;
20906;SDS011;10613;50.966;5.814;2023-08-24T08:47:31;4.00;;;4.00;;
20906;SDS011;10613;50.966;5.814;2023-08-24T08:51:38;3.00;;;3.00;;
20906;SDS011;10613;50.966;5.814;2023-08-24T08:55:46;2.75;;;2.75;;
20906;SDS011;10613;50.966;5.814;2023-08-24T08:59:53;3.00;;;3.00;;
20906;SDS011;10613;50.966;5.814;2023-08-24T09:04:00;3.00;;;3.00;;
20906;SDS011;10613;50.966;5.814;2023-08-24T09:08:07;4.75;;;4.75;;
20906;SDS011;10613;50.966;5.814;2023-08-24T09:12:14;2.75;;;2.75;;
20906;SDS011;10613;50.966;5.814;2023-08-24T09:16:21;2.75;;;2.75;;
20906;SDS011;10613;50.966;5.814;2023-08-24T09:20:29;3.00;;;3.00;;
20906;SDS011;10613;50.966;5.814;2023-08-24T09:24:36;3.75;;;3.00;;
20906;SDS011;10613;50.966;5.814;2023-08-24T09:28:43;4.50;;;4.50;;
20906;SDS011;10613;50.966;5.814;2023-08-24T09:32:51;4.25;;;3.00;;
20906;SDS011;10613;50.966;5.814;2023-08-24T09:36:58;3.50;;;3.50;;
20906;SDS011;10613;50.966;5.814;2023-08-24T09:41:05;4.00;;;4.00;;
20906;SDS011;10613;50.966;5.814;2023-08-24T09:45:12;5.25;;;5.25;;
20906;SDS011;10613;50.966;5.814;2023-08-24T09:49:20;3.00;;;3.00;;
20906;SDS011;10613;50.966;5.814;2023-08-24T09:53:27;3.00;;;3.00;;
20906;SDS011;10613;50.966;5.814;2023-08-24T09:57:38;3.00;;;3.00;;
20906;SDS011;10613;50.966;5.814;2023-08-24T10:01:46;3.50;;;3.00;;
20906;SDS011;10613;50.966;5.814;2023-08-24T10:05:54;4.75;;;4.50;;
20906;SDS011;10613;50.966;5.814;2023-08-24T10:10:06;4.25;;;4.25;;
20906;SDS011;10613;50.966;5.814;2023-08-24T10:14:16;6.00;;;6.00;;
20906;SDS011;10613;50.966;5.814;2023-08-24T10:18:25;4.00;;;4.00;;
20906;SDS011;10613;50.966;5.814;2023-08-24T10:22:33;4.00;;;4.00;;
20906;SDS011;10613;50.966;5.814;2023-08-24T10:26:40;4.00;;;4.00;;
20906;SDS011;10613;50.966;5.814;2023-08-24T10:30:47;5.00;;;5.00;;
20906;SDS011;10613;50.966;5.814;2023-08-24T10:34:54;5.00;;;5.00;;
20906;SDS011;10613;50.966;5.814;2023-08-24T10:39:04;7.75;;;7.75;;
20906;SDS011;10613;50.966;5.814;2023-08-24T10:43:12;11.25;;;11.25;;
20906;SDS011;10613;50.966;5.814;2023-08-24T10:47:20;11.00;;;9.75;;
20906;SDS011;10613;50.966;5.814;2023-08-24T10:51:27;9.75;;;9.50;;
20906;SDS011;10613;50.966;5.814;2023-08-24T10:55:35;11.50;;;11.00;;
20906;SDS011;10613;50.966;5.814;2023-08-24T10:59:44;11.25;;;10.50;;
20906;SDS011;10613;50.966;5.814;2023-08-24T11:03:55;12.75;;;11.25;;
20906;SDS011;10613;50.966;5.814;2023-08-24T11:08:04;12.25;;;12.25;;
20906;SDS011;10613;50.966;5.814;2023-08-24T11:12:11;16.00;;;12.25;;
20906;SDS011;10613;50.966;5.814;2023-08-24T11:16:37;11.25;;;10.50;;
20906;SDS011;10613;50.966;5.814;2023-08-24T11:20:45;14.00;;;14.00;;
20906;SDS011;10613;50.966;5.814;2023-08-24T11:24:51;11.75;;;10.75;;
20906;SDS011;10613;50.966;5.814;2023-08-24T11:28:58;11.00;;;11.00;;
20906;SDS011;10613;50.966;5.814;2023-08-24T11:33:05;12.50;;;12.25;;
20906;SDS011;10613;50.966;5.814;2023-08-24T11:37:18;14.25;;;13.50;;
20906;SDS011;10613;50.966;5.814;2023-08-24T11:41:25;11.75;;;11.25;;
20906;SDS011;10613;50.966;5.814;2023-08-24T11:45:33;10.50;;;9.25;;
20906;SDS011;10613;50.966;5.814;2023-08-24T11:49:42;11.00;;;11.00;;
20906;SDS011;10613;50.966;5.814;2023-08-24T11:53:48;8.50;;;8.50;;
20906;SDS011;10613;50.966;5.814;2023-08-24T11:57:55;8.00;;;8.00;;
20906;SDS011;10613;50.966;5.814;2023-08-24T12:02:02;7.50;;;7.50;;
20906;SDS011;10613;50.966;5.814;2023-08-24T12:06:11;9.50;;;8.75;;
20906;SDS011;10613;50.966;5.814;2023-08-24T12:10:18;10.50;;;8.00;;
20906;SDS011;10613;50.966;5.814;2023-08-24T12:14:25;9.00;;;8.00;;
20906;SDS011;10613;50.966;5.814;2023-08-24T12:18:35;10.00;;;10.00;;
20906;SDS011;10613;50.966;5.814;2023-08-24T12:22:42;9.75;;;9.75;;
20906;SDS011;10613;50.966;5.814;2023-08-24T12:26:55;9.25;;;9.00;;
20906;SDS011;10613;50.966;5.814;2023-08-24T12:31:08;10.25;;;8.75;;
20906;SDS011;10613;50.966;5.814;2023-08-24T12:35:15;7.25;;;6.00;;
20906;SDS011;10613;50.966;5.814;2023-08-24T12:39:22;11.25;;;9.75;;
20906;SDS011;10613;50.966;5.814;2023-08-24T12:43:29;7.75;;;7.75;;
20906;SDS011;10613;50.966;5.814;2023-08-24T12:47:43;9.25;;;8.25;;
20906;SDS011;10613;50.966;5.814;2023-08-24T12:51:50;9.75;;;9.50;;
20906;SDS011;10613;50.966;5.814;2023-08-24T12:55:57;6.00;;;6.00;;
20906;SDS011;10613;50.966;5.814;2023-08-24T13:00:04;7.75;;;7.75;;
20906;SDS011;10613;50.966;5.814;2023-08-24T13:04:12;8.00;;;8.00;;
20906;SDS011;10613;50.966;5.814;2023-08-24T13:08:19;10.25;;;6.75;;
20906;SDS011;10613;50.966;5.814;2023-08-24T13:12:27;7.25;;;6.75;;
20906;SDS011;10613;50.966;5.814;2023-08-24T13:16:33;5.25;;;5.00;;
20906;SDS011;10613;50.966;5.814;2023-08-24T13:20:40;7.25;;;7.25;;
20906;SDS011;10613;50.966;5.814;2023-08-24T13:24:47;5.00;;;5.00;;
20906;SDS011;10613;50.966;5.814;2023-08-24T13:28:54;7.75;;;7.75;;
20906;SDS011;10613;50.966;5.814;2023-08-24T13:33:01;8.00;;;6.50;;
20906;SDS011;10613;50.966;5.814;2023-08-24T13:37:08;8.75;;;8.75;;
20906;SDS011;10613;50.966;5.814;2023-08-24T13:41:19;9.00;;;8.00;;
20906;SDS011;10613;50.966;5.814;2023-08-24T13:45:26;8.75;;;7.25;;
20906;SDS011;10613;50.966;5.814;2023-08-24T13:49:33;5.25;;;5.25;;
20906;SDS011;10613;50.966;5.814;2023-08-24T13:53:40;8.00;;;8.00;;
20906;SDS011;10613;50.966;5.814;2023-08-24T13:57:47;5.25;;;5.25;;
20906;SDS011;10613;50.966;5.814;2023-08-24T14:01:54;7.75;;;7.75;;
20906;SDS011;10613;50.966;5.814;2023-08-24T14:06:01;7.25;;;7.25;;
20906;SDS011;10613;50.966;5.814;2023-08-24T14:10:08;8.00;;;8.00;;
20906;SDS011;10613;50.966;5.814;2023-08-24T14:14:15;6.00;;;4.50;;
20906;SDS011;10613;50.966;5.814;2023-08-24T14:18:22;8.00;;;6.75;;
20906;SDS011;10613;50.966;5.814;2023-08-24T14:22:29;7.50;;;7.00;;
20906;SDS011;10613;50.966;5.814;2023-08-24T14:26:36;8.50;;;8.00;;
20906;SDS011;10613;50.966;5.814;2023-08-24T14:30:45;9.50;;;9.00;;
20906;SDS011;10613;50.966;5.814;2023-08-24T14:34:52;6.75;;;6.75;;
20906;SDS011;10613;50.966;5.814;2023-08-24T14:38:59;5.50;;;5.00;;
20906;SDS011;10613;50.966;5.814;2023-08-24T14:43:06;8.00;;;5.00;;
20906;SDS011;10613;50.966;5.814;2023-08-24T14:47:13;4.75;;;4.75;;
20906;SDS011;10613;50.966;5.814;2023-08-24T14:51:20;3.00;;;3.00;;
20906;SDS011;10613;50.966;5.814;2023-08-24T14:55:27;7.75;;;4.50;;
20906;SDS011;10613;50.966;5.814;2023-08-24T14:59:34;5.75;;;4.00;;
20906;SDS011;10613;50.966;5.814;2023-08-24T15:03:41;2.50;;;2.50;;
20906;SDS011;10613;50.966;5.814;2023-08-24T15:07:51;3.75;;;3.75;;
20906;SDS011;10613;50.966;5.814;2023-08-24T15:11:58;3.00;;;3.00;;
20906;SDS011;10613;50.966;5.814;2023-08-24T15:16:05;5.00;;;4.00;;
20906;SDS011;10613;50.966;5.814;2023-08-24T15:20:12;4.00;;;4.00;;
20906;SDS011;10613;50.966;5.814;2023-08-24T15:24:19;3.00;;;3.00;;
20906;SDS011;10613;50.966;5.814;2023-08-24T15:28:35;4.00;;;3.00;;
20906;SDS011;10613;50.966;5.814;2023-08-24T15:32:42;2.25;;;2.25;;
20906;SDS011;10613;50.966;5.814;2023-08-24T15:36:49;4.25;;;4.25;;
20906;SDS011;10613;50.966;5.814;2023-08-24T15:40:56;3.25;;;3.25;;
20906;SDS011;10613;50.966;5.814;2023-08-24T15:45:03;3.25;;;3.25;;
20906;SDS011;10613;50.966;5.814;2023-08-24T15:49:10;3.00;;;3.00;;
20906;SDS011;10613;50.966;5.814;2023-08-24T15:53:17;3.00;;;3.00;;
20906;SDS011;10613;50.966;5.814;2023-08-24T15:57:24;3.00;;;3.00;;
20906;SDS011;10613;50.966;5.814;2023-08-24T16:01:32;3.50;;;3.50;;
20906;SDS011;10613;50.966;5.814;2023-08-24T16:05:38;5.00;;;4.00;;
20906;SDS011;10613;50.966;5.814;2023-08-24T16:09:46;3.00;;;3.00;;
20906;SDS011;10613;50.966;5.814;2023-08-24T16:13:53;3.25;;;3.25;;
20906;SDS011;10613;50.966;5.814;2023-08-24T16:18:00;3.00;;;3.00;;
20906;SDS011;10613;50.966;5.814;2023-08-24T16:22:07;3.25;;;3.00;;
20906;SDS011;10613;50.966;5.814;2023-08-24T16:26:14;4.75;;;4.75;;
20906;SDS011;10613;50.966;5.814;2023-08-24T16:30:22;3.00;;;3.00;;
20906;SDS011;10613;50.966;5.814;2023-08-24T16:34:28;2.00;;;2.00;;
20906;SDS011;10613;50.966;5.814;2023-08-24T16:38:35;2.00;;;2.00;;
20906;SDS011;10613;50.966;5.814;2023-08-24T16:42:43;2.50;;;2.50;;
20906;SDS011;10613;50.966;5.814;2023-08-24T16:46:50;2.00;;;2.00;;
20906;SDS011;10613;50.966;5.814;2023-08-24T16:50:56;2.00;;;2.00;;
20906;SDS011;10613;50.966;5.814;2023-08-24T16:55:04;2.00;;;2.00;;
20906;SDS011;10613;50.966;5.814;2023-08-24T16:59:11;2.25;;;2.25;;
20906;SDS011;10613;50.966;5.814;2023-08-24T17:03:18;2.00;;;2.00;;
20906;SDS011;10613;50.966;5.814;2023-08-24T17:07:25;4.25;;;3.00;;
20906;SDS011;10613;50.966;5.814;2023-08-24T17:11:32;3.00;;;3.00;;
20906;SDS011;10613;50.966;5.814;2023-08-24T17:15:39;1.00;;;1.00;;
20906;SDS011;10613;50.966;5.814;2023-08-24T17:19:46;2.75;;;2.50;;
20906;SDS011;10613;50.966;5.814;2023-08-24T17:23:53;2.00;;;2.00;;
20906;SDS011;10613;50.966;5.814;2023-08-24T17:28:00;2.00;;;2.00;;
20906;SDS011;10613;50.966;5.814;2023-08-24T17:32:07;2.75;;;2.75;;
20906;SDS011;10613;50.966;5.814;2023-08-24T17:36:14;3.50;;;3.25;;
20906;SDS011;10613;50.966;5.814;2023-08-24T17:40:21;3.25;;;3.25;;
20906;SDS011;10613;50.966;5.814;2023-08-24T17:44:28;3.00;;;3.00;;
20906;SDS011;10613;50.966;5.814;2023-08-24T17:48:36;2.25;;;2.25;;
20906;SDS011;10613;50.966;5.814;2023-08-24T17:52:43;2.00;;;2.00;;
20906;SDS011;10613;50.966;5.814;2023-08-24T17:56:50;3.50;;;3.50;;
20906;SDS011;10613;50.966;5.814;2023-08-24T18:00:57;2.00;;;2.00;;
20906;SDS011;10613;50.966;5.814;2023-08-24T18:05:04;3.00;;;3.00;;
20906;SDS011;10613;50.966;5.814;2023-08-24T18:09:11;3.00;;;3.00;;
20906;SDS011;10613;50.966;5.814;2023-08-24T18:13:24;2.00;;;2.00;;
20906;SDS011;10613;50.966;5.814;2023-08-24T18:17:32;2.00;;;2.00;;
20906;SDS011;10613;50.966;5.814;2023-08-24T18:21:39;2.00;;;2.00;;
20906;SDS011;10613;50.966;5.814;2023-08-24T18:25:46;2.00;;;2.00;;
20906;SDS011;10613;50.966;5.814;2023-08-24T18:29:53;2.75;;;2.25;;
20906;SDS011;10613;50.966;5.814;2023-08-24T18:34:00;4.00;;;3.00;;
20906;SDS011;10613;50.966;5.814;2023-08-24T18:38:07;3.25;;;3.25;;
20906;SDS011;10613;50.966;5.814;2023-08-24T18:42:14;8.00;;;7.00;;
20906;SDS011;10613;50.966;5.814;2023-08-24T18:46:28;3.50;;;3.50;;
20906;SDS011;10613;50.966;5.814;2023-08-24T18:50:35;3.00;;;2.25;;
20906;SDS011;10613;50.966;5.814;2023-08-24T18:54:42;2.75;;;2.75;;
20906;SDS011;10613;50.966;5.814;2023-08-24T18:58:49;2.50;;;2.50;;
20906;SDS011;10613;50.966;5.814;2023-08-24T19:02:56;4.00;;;4.00;;
20906;SDS011;10613;50.966;5.814;2023-08-24T19:07:03;3.00;;;3.00;;
20906;SDS011;10613;50.966;5.814;2023-08-24T19:11:10;2.00;;;2.00;;
20906;SDS011;10613;50.966;5.814;2023-08-24T19:15:18;4.00;;;4.00;;
20906;SDS011;10613;50.966;5.814;2023-08-24T19:19:25;3.00;;;3.00;;
20906;SDS011;10613;50.966;5.814;2023-08-24T19:23:32;4.50;;;4.50;;
20906;SDS011;10613;50.966;5.814;2023-08-24T19:27:40;2.75;;;2.75;;
20906;SDS011;10613;50.966;5.814;2023-08-24T19:31:48;3.00;;;3.00;;
20906;SDS011;10613;50.966;5.814;2023-08-24T19:35:55;2.25;;;2.25;;
20906;SDS011;10613;50.966;5.814;2023-08-24T19:40:02;3.25;;;3.25;;
20906;SDS011;10613;50.966;5.814;2023-08-24T19:44:11;4.00;;;4.00;;
20906;SDS011;10613;50.966;5.814;2023-08-24T19:48:18;5.25;;;5.25;;
20906;SDS011;10613;50.966;5.814;2023-08-24T19:52:25;3.00;;;3.00;;
20906;SDS011;10613;50.966;5.814;2023-08-24T19:56:32;6.50;;;6.50;;
20906;SDS011;10613;50.966;5.814;2023-08-24T20:00:39;6.25;;;4.00;;
20906;SDS011;10613;50.966;5.814;2023-08-24T20:04:46;6.00;;;4.50;;
20906;SDS011;10613;50.966;5.814;2023-08-24T20:08:53;4.50;;;4.50;;
20906;SDS011;10613;50.966;5.814;2023-08-24T20:13:01;3.75;;;3.75;;
20906;SDS011;10613;50.966;5.814;2023-08-24T20:17:08;8.00;;;8.00;;
20906;SDS011;10613;50.966;5.814;2023-08-24T20:21:15;8.00;;;8.00;;
20906;SDS011;10613;50.966;5.814;2023-08-24T20:25:22;8.50;;;7.50;;
20906;SDS011;10613;50.966;5.814;2023-08-24T20:29:29;3.25;;;2.75;;
20906;SDS011;10613;50.966;5.814;2023-08-24T20:33:36;3.00;;;3.00;;
20906;SDS011;10613;50.966;5.814;2023-08-24T20:37:43;4.00;;;4.00;;
20906;SDS011;10613;50.966;5.814;2023-08-24T20:41:50;5.50;;;5.50;;
20906;SDS011;10613;50.966;5.814;2023-08-24T20:45:57;8.00;;;7.00;;
20906;SDS011;10613;50.966;5.814;2023-08-24T20:50:04;5.50;;;5.50;;
20906;SDS011;10613;50.966;5.814;2023-08-24T20:54:11;7.00;;;7.00;;
20906;SDS011;10613;50.966;5.814;2023-08-24T20:58:18;4.00;;;3.50;;
20906;SDS011;10613;50.966;5.814;2023-08-24T21:02:25;5.00;;;5.00;;
20906;SDS011;10613;50.966;5.814;2023-08-24T21:06:32;6.75;;;6.75;;
20906;SDS011;10613;50.966;5.814;2023-08-24T21:10:40;7.00;;;6.00;;
20906;SDS011;10613;50.966;5.814;2023-08-24T21:14:47;6.75;;;6.75;;
20906;SDS011;10613;50.966;5.814;2023-08-24T21:18:54;7.00;;;7.00;;
20906;SDS011;10613;50.966;5.814;2023-08-24T21:23:01;3.25;;;2.50;;
20906;SDS011;10613;50.966;5.814;2023-08-24T21:27:08;7.50;;;6.50;;
20906;SDS011;10613;50.966;5.814;2023-08-24T21:31:15;5.00;;;5.00;;
20906;SDS011;10613;50.966;5.814;2023-08-24T21:35:23;6.75;;;6.75;;
20906;SDS011;10613;50.966;5.814;2023-08-24T21:39:30;4.00;;;4.00;;
20906;SDS011;10613;50.966;5.814;2023-08-24T21:43:37;5.00;;;5.00;;
20906;SDS011;10613;50.966;5.814;2023-08-24T21:47:44;6.75;;;5.50;;
20906;SDS011;10613;50.966;5.814;2023-08-24T21:51:51;5.50;;;5.50;;
20906;SDS011;10613;50.966;5.814;2023-08-24T21:55:58;5.00;;;5.00;;
20906;SDS011;10613;50.966;5.814;2023-08-24T22:00:05;6.00;;;5.25;;
20906;SDS011;10613;50.966;5.814;2023-08-24T22:04:13;3.75;;;3.75;;
20906;SDS011;10613;50.966;5.814;2023-08-24T22:08:20;6.00;;;6.00;;
20906;SDS011;10613;50.966;5.814;2023-08-24T22:12:27;7.25;;;6.75;;
20906;SDS011;10613;50.966;5.814;2023-08-24T22:16:37;6.75;;;5.00;;
20906;SDS011;10613;50.966;5.814;2023-08-24T22:20:44;2.75;;;2.75;;
20906;SDS011;10613;50.966;5.814;2023-08-24T22:24:51;4.00;;;4.00;;
20906;SDS011;10613;50.966;5.814;2023-08-24T22:28:58;2.00;;;2.00;;
20906;SDS011;10613;50.966;5.814;2023-08-24T22:33:05;3.00;;;3.00;;
20906;SDS011;10613;50.966;5.814;2023-08-24T22:37:12;3.00;;;3.00;;
20906;SDS011;10613;50.966;5.814;2023-08-24T22:41:19;4.50;;;4.50;;
20906;SDS011;10613;50.966;5.814;2023-08-24T22:45:36;4.75;;;4.75;;
20906;SDS011;10613;50.966;5.814;2023-08-24T22:49:43;3.00;;;3.00;;
20906;SDS011;10613;50.966;5.814;2023-08-24T22:53:50;4.00;;;4.00;;
20906;SDS011;10613;50.966;5.814;2023-08-24T22:57:57;3.00;;;3.00;;
20906;SDS011;10613;50.966;5.814;2023-08-24T23:02:04;3.00;;;3.00;;
20906;SDS011;10613;50.966;5.814;2023-08-24T23:06:11;6.00;;;6.00;;
20906;SDS011;10613;50.966;5.814;2023-08-24T23:10:19;7.25;;;6.00;;
20906;SDS011;10613;50.966;5.814;2023-08-24T23:14:26;2.75;;;2.75;;
20906;SDS011;10613;50.966;5.814;2023-08-24T23:18:35;3.75;;;3.75;;
20906;SDS011;10613;50.966;5.814;2023-08-24T23:22:42;5.00;;;4.50;;
20906;SDS011;10613;50.966;5.814;2023-08-24T23:26:49;4.00;;;4.00;;
20906;SDS011;10613;50.966;5.814;2023-08-24T23:30:56;4.00;;;3.00;;
20906;SDS011;10613;50.966;5.814;2023-08-24T23:35:03;3.00;;;3.00;;
20906;SDS011;10613;50.966;5.814;2023-08-24T23:39:10;3.75;;;3.75;;
20906;SDS011;10613;50.966;5.814;2023-08-24T23:43:18;2.50;;;2.50;;
20906;SDS011;10613;50.966;5.814;2023-08-24T23:47:25;5.00;;;4.25;;
20906;SDS011;10613;50.966;5.814;2023-08-24T23:51:32;6.50;;;4.75;;
20906;SDS011;10613;50.966;5.814;2023-08-24T23:55:40;3.25;;;3.25;;
20906;SDS011;10613;50.966;5.814;2023-08-24T23:59:47;6.00;;;4.00;;
